sensor_id;sensor_type;location;lat;lon;timestamp;noise_LAeq;noise_LA_min;noise_LA_max;noise_LA01;noise_LA95
66399;Laerm;54877;51.504;3.894;2023-09-19T00:00:56;35.41;33.58;45.23;;
66399;Laerm;54877;51.504;3.894;2023-09-19T00:03:22;35.21;33.34;45.27;;
66399;Laerm;54877;51.504;3.894;2023-09-19T00:05:48;35.27;33.37;43.40;;
66399;Laerm;54877;51.504;3.894;2023-09-19T00:08:15;35.09;33.42;52.19;;
66399;Laerm;54877;51.504;3.894;2023-09-19T00:10:41;34.89;33.22;50.46;;
66399;Laerm;54877;51.504;3.894;2023-09-19T00:13:08;34.73;33.35;37.03;;
66399;Laerm;54877;51.504;3.894;2023-09-19T00:15:39;34.93;33.29;42.26;;
66399;Laerm;54877;51.504;3.894;2023-09-19T00:18:06;34.79;33.32;37.40;;
66399;Laerm;54877;51.504;3.894;2023-09-19T00:20:37;34.67;33.31;36.34;;
66399;Laerm;54877;51.504;3.894;2023-09-19T00:23:04;34.82;33.34;46.19;;
66399;Laerm;54877;51.504;3.894;2023-09-19T00:25:29;34.79;33.24;43.77;;
66399;Laerm;54877;51.504;3.894;2023-09-19T00:27:55;34.65;33.07;36.32;;
66399;Laerm;54877;51.504;3.894;2023-09-19T00:30:20;34.91;33.37;45.08;;
66399;Laerm;54877;51.504;3.894;2023-09-19T00:32:47;34.83;33.11;41.68;;
66399;Laerm;54877;51.504;3.894;2023-09-19T00:35:13;34.66;33.20;37.39;;
66399;Laerm;54877;51.504;3.894;2023-09-19T00:37:40;34.66;33.21;43.73;;
66399;Laerm;54877;51.504;3.894;2023-09-19T00:40:07;34.63;33.09;41.03;;
66399;Laerm;54877;51.504;3.894;2023-09-19T00:42:37;34.61;32.98;37.35;;
66399;Laerm;54877;51.504;3.894;2023-09-19T00:45:03;34.69;33.05;37.74;;
66399;Laerm;54877;51.504;3.894;2023-09-19T00:47:29;34.65;33.27;39.89;;
66399;Laerm;54877;51.504;3.894;2023-09-19T00:49:55;34.73;33.26;38.41;;
66399;Laerm;54877;51.504;3.894;2023-09-19T00:52:20;34.60;33.27;40.60;;
66399;Laerm;54877;51.504;3.894;2023-09-19T00:54:47;34.82;33.10;38.85;;
66399;Laerm;54877;51.504;3.894;2023-09-19T00:57:13;34.52;32.98;36.98;;
66399;Laerm;54877;51.504;3.894;2023-09-19T00:59:40;34.35;32.97;37.71;;
66399;Laerm;54877;51.504;3.894;2023-09-19T01:02:07;34.66;33.11;40.07;;
66399;Laerm;54877;51.504;3.894;2023-09-19T01:04:33;34.59;32.85;39.62;;
66399;Laerm;54877;51.504;3.894;2023-09-19T01:06:59;34.67;33.25;46.82;;
66399;Laerm;54877;51.504;3.894;2023-09-19T01:09:24;34.77;33.37;45.49;;
66399;Laerm;54877;51.504;3.894;2023-09-19T01:11:53;34.81;33.46;42.27;;
66399;Laerm;54877;51.504;3.894;2023-09-19T01:14:32;34.86;33.28;37.18;;
66399;Laerm;54877;51.504;3.894;2023-09-19T01:17:39;34.79;33.49;37.04;;
66399;Laerm;54877;51.504;3.894;2023-09-19T01:20:26;34.86;33.54;36.18;;
66399;Laerm;54877;51.504;3.894;2023-09-19T01:28:32;34.84;33.43;36.36;;
66399;Laerm;54877;51.504;3.894;2023-09-19T01:31:04;35.00;33.17;41.30;;
66399;Laerm;54877;51.504;3.894;2023-09-19T01:33:53;34.87;33.34;36.14;;
66399;Laerm;54877;51.504;3.894;2023-09-19T01:36:22;35.14;33.14;42.26;;
66399;Laerm;54877;51.504;3.894;2023-09-19T01:38:49;34.90;33.51;36.74;;
66399;Laerm;54877;51.504;3.894;2023-09-19T01:41:21;34.86;33.22;41.20;;
66399;Laerm;54877;51.504;3.894;2023-09-19T01:43:51;35.95;33.53;48.51;;
66399;Laerm;54877;51.504;3.894;2023-09-19T01:46:21;34.99;33.23;44.31;;
66399;Laerm;54877;51.504;3.894;2023-09-19T01:49:21;34.86;33.14;36.58;;
66399;Laerm;54877;51.504;3.894;2023-09-19T01:51:53;34.79;33.42;36.91;;
66399;Laerm;54877;51.504;3.894;2023-09-19T01:54:26;35.02;33.42;40.99;;
66399;Laerm;54877;51.504;3.894;2023-09-19T01:57:40;35.00;33.24;41.81;;
66399;Laerm;54877;51.504;3.894;2023-09-19T02:00:10;35.05;33.38;42.46;;
66399;Laerm;54877;51.504;3.894;2023-09-19T02:02:45;35.11;33.56;46.81;;
66399;Laerm;54877;51.504;3.894;2023-09-19T02:05:12;34.92;33.16;38.93;;
66399;Laerm;54877;51.504;3.894;2023-09-19T02:07:38;34.89;33.33;41.07;;
66399;Laerm;54877;51.504;3.894;2023-09-19T02:10:06;34.90;33.54;37.50;;
66399;Laerm;54877;51.504;3.894;2023-09-19T02:12:32;35.00;33.54;39.26;;
66399;Laerm;54877;51.504;3.894;2023-09-19T02:15:01;34.94;33.18;38.51;;
66399;Laerm;54877;51.504;3.894;2023-09-19T02:17:26;35.03;33.63;40.69;;
66399;Laerm;54877;51.504;3.894;2023-09-19T02:19:53;35.65;33.52;49.78;;
66399;Laerm;54877;51.504;3.894;2023-09-19T02:22:20;35.24;33.64;47.53;;
66399;Laerm;54877;51.504;3.894;2023-09-19T02:24:45;35.36;33.80;39.69;;
66399;Laerm;54877;51.504;3.894;2023-09-19T02:27:13;35.72;33.25;45.92;;
66399;Laerm;54877;51.504;3.894;2023-09-19T02:29:41;34.90;33.48;37.07;;
66399;Laerm;54877;51.504;3.894;2023-09-19T02:32:06;35.09;33.57;40.45;;
66399;Laerm;54877;51.504;3.894;2023-09-19T02:34:32;35.12;33.54;39.61;;
66399;Laerm;54877;51.504;3.894;2023-09-19T02:36:57;35.21;33.48;39.43;;
66399;Laerm;54877;51.504;3.894;2023-09-19T02:39:23;35.06;33.75;38.55;;
66399;Laerm;54877;51.504;3.894;2023-09-19T02:41:49;35.58;33.75;49.06;;
66399;Laerm;54877;51.504;3.894;2023-09-19T02:44:14;35.11;33.58;38.84;;
66399;Laerm;54877;51.504;3.894;2023-09-19T02:46:39;35.31;33.56;39.46;;
66399;Laerm;54877;51.504;3.894;2023-09-19T02:49:05;35.93;33.54;45.72;;
66399;Laerm;54877;51.504;3.894;2023-09-19T02:51:32;35.22;33.53;42.68;;
66399;Laerm;54877;51.504;3.894;2023-09-19T02:53:59;35.18;33.42;42.38;;
66399;Laerm;54877;51.504;3.894;2023-09-19T02:56:24;35.13;33.75;40.50;;
66399;Laerm;54877;51.504;3.894;2023-09-19T02:58:50;35.17;33.49;38.59;;
66399;Laerm;54877;51.504;3.894;2023-09-19T03:01:16;35.29;33.75;39.03;;
66399;Laerm;54877;51.504;3.894;2023-09-19T03:03:43;35.35;33.91;40.30;;
66399;Laerm;54877;51.504;3.894;2023-09-19T03:06:10;35.37;33.69;42.13;;
66399;Laerm;54877;51.504;3.894;2023-09-19T03:08:38;36.12;33.54;46.92;;
66399;Laerm;54877;51.504;3.894;2023-09-19T03:11:05;35.31;33.83;42.11;;
66399;Laerm;54877;51.504;3.894;2023-09-19T03:13:36;35.58;33.77;43.30;;
66399;Laerm;54877;51.504;3.894;2023-09-19T03:16:03;35.54;33.85;41.74;;
66399;Laerm;54877;51.504;3.894;2023-09-19T03:18:31;35.56;34.13;42.67;;
66399;Laerm;54877;51.504;3.894;2023-09-19T03:20:57;35.72;34.01;39.76;;
66399;Laerm;54877;51.504;3.894;2023-09-19T03:23:25;35.66;33.83;40.30;;
66399;Laerm;54877;51.504;3.894;2023-09-19T03:25:51;35.72;33.86;41.47;;
66399;Laerm;54877;51.504;3.894;2023-09-19T03:28:17;35.82;33.77;51.77;;
66399;Laerm;54877;51.504;3.894;2023-09-19T03:30:43;35.58;34.09;47.61;;
66399;Laerm;54877;51.504;3.894;2023-09-19T03:33:08;35.45;33.93;40.03;;
66399;Laerm;54877;51.504;3.894;2023-09-19T03:35:37;35.71;34.02;40.59;;
66399;Laerm;54877;51.504;3.894;2023-09-19T03:38:03;36.72;34.30;44.42;;
66399;Laerm;54877;51.504;3.894;2023-09-19T03:40:29;35.65;33.84;38.09;;
66399;Laerm;54877;51.504;3.894;2023-09-19T03:42:54;35.57;33.93;37.22;;
66399;Laerm;54877;51.504;3.894;2023-09-19T03:45:20;35.83;34.18;47.85;;
66399;Laerm;54877;51.504;3.894;2023-09-19T03:47:45;35.62;33.85;37.79;;
66399;Laerm;54877;51.504;3.894;2023-09-19T03:50:13;35.83;34.21;51.70;;
66399;Laerm;54877;51.504;3.894;2023-09-19T03:52:45;37.12;33.92;54.36;;
66399;Laerm;54877;51.504;3.894;2023-09-19T03:55:11;35.95;34.37;49.28;;
66399;Laerm;54877;51.504;3.894;2023-09-19T03:57:37;35.83;34.21;39.72;;
66399;Laerm;54877;51.504;3.894;2023-09-19T04:00:03;37.94;34.30;64.41;;
66399;Laerm;54877;51.504;3.894;2023-09-19T04:02:37;36.43;34.39;58.48;;
66399;Laerm;54877;51.504;3.894;2023-09-19T04:05:03;36.25;34.32;47.15;;
66399;Laerm;54877;51.504;3.894;2023-09-19T04:07:28;36.06;34.54;45.07;;
66399;Laerm;54877;51.504;3.894;2023-09-19T04:09:54;36.41;34.21;48.02;;
66399;Laerm;54877;51.504;3.894;2023-09-19T04:12:20;36.18;34.59;44.81;;
66399;Laerm;54877;51.504;3.894;2023-09-19T04:14:45;36.17;34.18;50.32;;
66399;Laerm;54877;51.504;3.894;2023-09-19T04:17:11;36.06;34.24;42.55;;
66399;Laerm;54877;51.504;3.894;2023-09-19T04:19:36;36.27;34.61;39.09;;
66399;Laerm;54877;51.504;3.894;2023-09-19T04:22:02;36.10;34.29;38.18;;
66399;Laerm;54877;51.504;3.894;2023-09-19T04:24:28;36.28;34.69;38.66;;
66399;Laerm;54877;51.504;3.894;2023-09-19T04:26:54;36.38;34.82;39.19;;
66399;Laerm;54877;51.504;3.894;2023-09-19T04:29:19;51.09;34.73;71.28;;
66399;Laerm;54877;51.504;3.894;2023-09-19T04:31:45;36.30;34.81;42.62;;
66399;Laerm;54877;51.504;3.894;2023-09-19T04:34:11;36.41;34.66;42.69;;
66399;Laerm;54877;51.504;3.894;2023-09-19T04:36:41;36.54;34.64;40.29;;
66399;Laerm;54877;51.504;3.894;2023-09-19T04:39:06;37.59;35.01;50.37;;
66399;Laerm;54877;51.504;3.894;2023-09-19T04:41:32;45.21;34.96;65.20;;
66399;Laerm;54877;51.504;3.894;2023-09-19T04:43:58;36.57;34.92;39.45;;
66399;Laerm;54877;51.504;3.894;2023-09-19T04:46:23;37.11;35.08;47.99;;
66399;Laerm;54877;51.504;3.894;2023-09-19T04:48:49;36.72;35.01;47.07;;
66399;Laerm;54877;51.504;3.894;2023-09-19T04:51:14;36.63;34.89;43.99;;
66399;Laerm;54877;51.504;3.894;2023-09-19T04:53:40;46.36;35.19;64.77;;
66399;Laerm;54877;51.504;3.894;2023-09-19T04:56:06;44.33;34.76;63.07;;
66399;Laerm;54877;51.504;3.894;2023-09-19T04:58:33;46.78;35.01;64.91;;
66399;Laerm;54877;51.504;3.894;2023-09-19T05:00:58;36.64;34.80;43.25;;
66399;Laerm;54877;51.504;3.894;2023-09-19T05:03:24;36.71;35.01;44.17;;
66399;Laerm;54877;51.504;3.894;2023-09-19T05:05:49;36.67;34.97;42.10;;
66399;Laerm;54877;51.504;3.894;2023-09-19T05:08:15;47.23;35.21;66.79;;
66399;Laerm;54877;51.504;3.894;2023-09-19T05:10:40;37.52;34.94;47.04;;
66399;Laerm;54877;51.504;3.894;2023-09-19T05:13:06;44.09;34.79;62.01;;
66399;Laerm;54877;51.504;3.894;2023-09-19T05:15:33;36.66;35.21;47.69;;
66399;Laerm;54877;51.504;3.894;2023-09-19T05:17:58;50.18;35.08;68.82;;
66399;Laerm;54877;51.504;3.894;2023-09-19T05:20:24;44.40;35.32;61.99;;
66399;Laerm;54877;51.504;3.894;2023-09-19T05:22:57;44.34;35.15;69.82;;
66399;Laerm;54877;51.504;3.894;2023-09-19T05:25:23;37.17;35.36;48.35;;
66399;Laerm;54877;51.504;3.894;2023-09-19T05:27:53;48.29;35.34;69.60;;
66399;Laerm;54877;51.504;3.894;2023-09-19T05:30:18;48.96;35.67;68.18;;
66399;Laerm;54877;51.504;3.894;2023-09-19T05:32:46;50.85;35.25;69.19;;
66399;Laerm;54877;51.504;3.894;2023-09-19T05:35:11;48.08;35.27;65.60;;
66399;Laerm;54877;51.504;3.894;2023-09-19T05:37:38;47.67;35.77;65.49;;
66399;Laerm;54877;51.504;3.894;2023-09-19T05:40:04;45.88;35.71;64.38;;
66399;Laerm;54877;51.504;3.894;2023-09-19T05:42:38;37.06;35.45;43.40;;
66399;Laerm;54877;51.504;3.894;2023-09-19T05:45:04;38.31;35.59;47.79;;
66399;Laerm;54877;51.504;3.894;2023-09-19T05:47:31;47.39;35.66;67.78;;
66399;Laerm;54877;51.504;3.894;2023-09-19T05:49:57;45.00;35.53;63.62;;
66399;Laerm;54877;51.504;3.894;2023-09-19T05:52:22;49.41;35.98;69.18;;
66399;Laerm;54877;51.504;3.894;2023-09-19T05:54:47;45.21;35.38;59.06;;
66399;Laerm;54877;51.504;3.894;2023-09-19T05:57:14;39.18;35.85;50.42;;
66399;Laerm;54877;51.504;3.894;2023-09-19T05:59:40;37.49;35.37;53.05;;
66399;Laerm;54877;51.504;3.894;2023-09-19T06:02:08;43.31;35.73;66.47;;
66399;Laerm;54877;51.504;3.894;2023-09-19T06:04:33;50.50;35.32;69.97;;
66399;Laerm;54877;51.504;3.894;2023-09-19T06:06:59;37.52;35.27;43.63;;
66399;Laerm;54877;51.504;3.894;2023-09-19T06:09:25;37.75;35.53;51.58;;
66399;Laerm;54877;51.504;3.894;2023-09-19T06:11:53;44.38;35.45;60.74;;
66399;Laerm;54877;51.504;3.894;2023-09-19T06:14:20;50.97;36.07;68.95;;
66399;Laerm;54877;51.504;3.894;2023-09-19T06:16:45;47.74;35.61;68.16;;
66399;Laerm;54877;51.504;3.894;2023-09-19T06:19:12;38.79;35.67;52.55;;
66399;Laerm;54877;51.504;3.894;2023-09-19T06:21:37;41.73;35.75;63.23;;
66399;Laerm;54877;51.504;3.894;2023-09-19T06:24:04;52.95;35.82;67.11;;
66399;Laerm;54877;51.504;3.894;2023-09-19T06:26:29;48.54;35.80;68.37;;
66399;Laerm;54877;51.504;3.894;2023-09-19T06:28:55;53.21;36.19;72.35;;
66399;Laerm;54877;51.504;3.894;2023-09-19T06:31:21;43.34;35.45;68.37;;
66399;Laerm;54877;51.504;3.894;2023-09-19T06:33:51;42.75;35.91;58.38;;
66399;Laerm;54877;51.504;3.894;2023-09-19T06:36:16;49.49;35.89;66.12;;
66399;Laerm;54877;51.504;3.894;2023-09-19T06:38:42;48.14;36.13;64.50;;
66399;Laerm;54877;51.504;3.894;2023-09-19T06:41:07;47.91;35.82;64.24;;
66399;Laerm;54877;51.504;3.894;2023-09-19T06:43:34;53.88;35.87;74.87;;
66399;Laerm;54877;51.504;3.894;2023-09-19T06:46:00;51.34;35.70;67.90;;
66399;Laerm;54877;51.504;3.894;2023-09-19T06:48:26;49.86;35.79;65.59;;
66399;Laerm;54877;51.504;3.894;2023-09-19T06:50:55;51.25;35.71;76.65;;
66399;Laerm;54877;51.504;3.894;2023-09-19T06:53:21;42.55;35.61;58.88;;
66399;Laerm;54877;51.504;3.894;2023-09-19T06:55:48;51.39;35.77;66.24;;
66399;Laerm;54877;51.504;3.894;2023-09-19T06:58:14;48.56;35.70;67.22;;
66399;Laerm;54877;51.504;3.894;2023-09-19T07:00:42;47.61;35.28;66.14;;
66399;Laerm;54877;51.504;3.894;2023-09-19T07:03:08;47.24;35.34;64.03;;
66399;Laerm;54877;51.504;3.894;2023-09-19T07:05:37;38.25;35.10;50.41;;
66399;Laerm;54877;51.504;3.894;2023-09-19T07:08:04;39.51;35.38;60.86;;
66399;Laerm;54877;51.504;3.894;2023-09-19T07:10:31;38.15;35.23;52.73;;
66399;Laerm;54877;51.504;3.894;2023-09-19T07:13:02;38.25;35.25;55.26;;
66399;Laerm;54877;51.504;3.894;2023-09-19T07:15:29;39.18;35.39;51.54;;
66399;Laerm;54877;51.504;3.894;2023-09-19T07:17:56;52.80;38.01;68.60;;
66399;Laerm;54877;51.504;3.894;2023-09-19T07:20:23;42.85;36.80;54.77;;
66399;Laerm;54877;51.504;3.894;2023-09-19T07:22:51;50.35;35.95;65.74;;
66399;Laerm;54877;51.504;3.894;2023-09-19T07:25:17;50.35;35.97;71.84;;
66399;Laerm;54877;51.504;3.894;2023-09-19T07:27:42;45.00;35.18;65.25;;
66399;Laerm;54877;51.504;3.894;2023-09-19T07:30:08;38.32;35.70;46.99;;
66399;Laerm;54877;51.504;3.894;2023-09-19T07:32:34;40.70;35.39;58.38;;
66399;Laerm;54877;51.504;3.894;2023-09-19T07:35:03;51.12;36.11;67.07;;
66399;Laerm;54877;51.504;3.894;2023-09-19T07:37:30;39.26;35.56;57.49;;
66399;Laerm;54877;51.504;3.894;2023-09-19T07:40:04;37.55;35.27;45.70;;
66399;Laerm;54877;51.504;3.894;2023-09-19T07:42:37;39.34;35.53;50.99;;
66399;Laerm;54877;51.504;3.894;2023-09-19T07:45:04;38.58;36.11;52.29;;
66399;Laerm;54877;51.504;3.894;2023-09-19T07:47:30;49.12;36.87;65.74;;
66399;Laerm;54877;51.504;3.894;2023-09-19T07:49:57;50.71;35.80;67.58;;
66399;Laerm;54877;51.504;3.894;2023-09-19T07:52:24;42.01;35.26;58.42;;
66399;Laerm;54877;51.504;3.894;2023-09-19T07:54:49;37.84;35.20;54.13;;
66399;Laerm;54877;51.504;3.894;2023-09-19T07:57:15;38.92;35.07;56.68;;
66399;Laerm;54877;51.504;3.894;2023-09-19T07:59:41;42.53;35.71;58.91;;
66399;Laerm;54877;51.504;3.894;2023-09-19T08:02:07;39.40;35.45;52.89;;
66399;Laerm;54877;51.504;3.894;2023-09-19T08:04:41;48.94;35.59;65.85;;
66399;Laerm;54877;51.504;3.894;2023-09-19T08:07:07;40.88;35.88;63.28;;
66399;Laerm;54877;51.504;3.894;2023-09-19T08:09:34;47.82;36.26;68.43;;
66399;Laerm;54877;51.504;3.894;2023-09-19T08:11:59;47.86;35.23;67.27;;
66399;Laerm;54877;51.504;3.894;2023-09-19T08:14:28;43.15;35.52;63.05;;
66399;Laerm;54877;51.504;3.894;2023-09-19T08:16:57;41.54;35.62;69.01;;
66399;Laerm;54877;51.504;3.894;2023-09-19T08:19:23;46.56;35.62;64.92;;
66399;Laerm;54877;51.504;3.894;2023-09-19T08:21:55;39.28;35.81;51.05;;
66399;Laerm;54877;51.504;3.894;2023-09-19T08:24:24;40.87;36.08;61.27;;
66399;Laerm;54877;51.504;3.894;2023-09-19T08:26:50;47.40;35.93;64.83;;
66399;Laerm;54877;51.504;3.894;2023-09-19T08:29:16;45.63;36.64;67.73;;
66399;Laerm;54877;51.504;3.894;2023-09-19T08:31:42;57.08;35.98;70.66;;
66399;Laerm;54877;51.504;3.894;2023-09-19T08:34:08;52.77;35.92;80.05;;
66399;Laerm;54877;51.504;3.894;2023-09-19T08:36:33;50.90;35.64;69.85;;
66399;Laerm;54877;51.504;3.894;2023-09-19T08:39:00;42.64;37.85;57.71;;
66399;Laerm;54877;51.504;3.894;2023-09-19T08:41:25;44.30;36.52;64.45;;
66399;Laerm;54877;51.504;3.894;2023-09-19T08:43:51;39.76;35.60;54.04;;
66399;Laerm;54877;51.504;3.894;2023-09-19T08:46:19;41.88;36.12;57.34;;
66399;Laerm;54877;51.504;3.894;2023-09-19T08:49:00;52.03;36.94;78.45;;
66399;Laerm;54877;51.504;3.894;2023-09-19T08:51:33;50.06;36.18;71.98;;
66399;Laerm;54877;51.504;3.894;2023-09-19T08:54:06;40.33;36.22;61.72;;
66399;Laerm;54877;51.504;3.894;2023-09-19T08:56:32;41.09;35.50;57.12;;
66399;Laerm;54877;51.504;3.894;2023-09-19T08:59:02;42.52;37.04;53.96;;
66399;Laerm;54877;51.504;3.894;2023-09-19T09:01:37;47.69;35.63;68.30;;
66399;Laerm;54877;51.504;3.894;2023-09-19T09:04:08;39.61;36.14;48.30;;
66399;Laerm;54877;51.504;3.894;2023-09-19T09:06:38;43.28;36.38;61.43;;
66399;Laerm;54877;51.504;3.894;2023-09-19T09:09:04;40.58;35.87;51.49;;
66399;Laerm;54877;51.504;3.894;2023-09-19T09:11:33;51.21;36.50;68.29;;
66399;Laerm;54877;51.504;3.894;2023-09-19T09:13:58;49.67;37.05;64.95;;
66399;Laerm;54877;51.504;3.894;2023-09-19T09:16:24;47.57;36.88;65.41;;
66399;Laerm;54877;51.504;3.894;2023-09-19T09:18:51;47.40;37.67;67.68;;
66399;Laerm;54877;51.504;3.894;2023-09-19T09:21:18;42.32;36.50;63.60;;
66399;Laerm;54877;51.504;3.894;2023-09-19T09:23:44;50.34;37.46;64.72;;
66399;Laerm;54877;51.504;3.894;2023-09-19T09:26:09;42.95;38.08;57.56;;
66399;Laerm;54877;51.504;3.894;2023-09-19T09:28:35;56.55;37.22;76.55;;
66399;Laerm;54877;51.504;3.894;2023-09-19T09:31:02;41.92;36.79;69.02;;
66399;Laerm;54877;51.504;3.894;2023-09-19T09:33:33;41.41;37.07;59.65;;
66399;Laerm;54877;51.504;3.894;2023-09-19T09:35:59;45.31;36.39;59.68;;
66399;Laerm;54877;51.504;3.894;2023-09-19T09:38:29;52.94;37.57;73.68;;
66399;Laerm;54877;51.504;3.894;2023-09-19T09:40:57;52.30;35.82;72.22;;
66399;Laerm;54877;51.504;3.894;2023-09-19T09:43:27;43.11;36.76;65.09;;
66399;Laerm;54877;51.504;3.894;2023-09-19T09:46:19;43.64;37.01;63.45;;
66399;Laerm;54877;51.504;3.894;2023-09-19T09:51:33;43.47;36.92;63.59;;
66399;Laerm;54877;51.504;3.894;2023-09-19T09:54:18;52.19;37.01;70.34;;
66399;Laerm;54877;51.504;3.894;2023-09-19T09:59:20;41.06;37.44;55.48;;
66399;Laerm;54877;51.504;3.894;2023-09-19T10:01:49;41.82;36.53;60.43;;
66399;Laerm;54877;51.504;3.894;2023-09-19T10:04:27;50.54;37.64;69.42;;
66399;Laerm;54877;51.504;3.894;2023-09-19T10:07:02;50.75;37.05;66.34;;
66399;Laerm;54877;51.504;3.894;2023-09-19T10:09:30;47.43;37.26;66.51;;
66399;Laerm;54877;51.504;3.894;2023-09-19T10:12:11;50.47;36.60;70.62;;
66399;Laerm;54877;51.504;3.894;2023-09-19T10:14:38;49.98;36.03;70.56;;
66399;Laerm;54877;51.504;3.894;2023-09-19T10:17:09;44.72;37.15;69.80;;
66399;Laerm;54877;51.504;3.894;2023-09-19T10:19:50;41.76;36.12;61.01;;
66399;Laerm;54877;51.504;3.894;2023-09-19T10:22:23;51.91;37.06;70.72;;
66399;Laerm;54877;51.504;3.894;2023-09-19T10:24:55;46.91;37.56;65.16;;
66399;Laerm;54877;51.504;3.894;2023-09-19T10:27:25;51.30;37.99;67.15;;
66399;Laerm;54877;51.504;3.894;2023-09-19T10:29:52;54.03;35.97;72.97;;
66399;Laerm;54877;51.504;3.894;2023-09-19T10:32:22;48.29;36.53;66.87;;
66399;Laerm;54877;51.504;3.894;2023-09-19T10:34:49;50.38;35.91;69.10;;
66399;Laerm;54877;51.504;3.894;2023-09-19T10:37:18;50.87;36.85;67.62;;
66399;Laerm;54877;51.504;3.894;2023-09-19T10:39:48;51.94;36.55;69.86;;
66399;Laerm;54877;51.504;3.894;2023-09-19T10:42:19;41.73;36.49;62.03;;
66399;Laerm;54877;51.504;3.894;2023-09-19T10:44:46;46.47;36.58;64.16;;
66399;Laerm;54877;51.504;3.894;2023-09-19T10:47:14;44.06;36.29;65.56;;
66399;Laerm;54877;51.504;3.894;2023-09-19T10:49:44;53.73;36.59;73.36;;
66399;Laerm;54877;51.504;3.894;2023-09-19T10:52:15;44.15;38.30;62.82;;
66399;Laerm;54877;51.504;3.894;2023-09-19T10:54:46;49.04;39.02;69.42;;
66399;Laerm;54877;51.504;3.894;2023-09-19T10:57:22;45.27;37.96;68.43;;
66399;Laerm;54877;51.504;3.894;2023-09-19T11:00:06;52.77;37.56;73.30;;
66399;Laerm;54877;51.504;3.894;2023-09-19T11:05:34;50.70;36.50;68.85;;
66399;Laerm;54877;51.504;3.894;2023-09-19T11:08:00;43.59;37.14;60.97;;
66399;Laerm;54877;51.504;3.894;2023-09-19T11:10:48;52.28;36.95;70.33;;
66399;Laerm;54877;51.504;3.894;2023-09-19T11:13:25;42.01;35.92;53.66;;
66399;Laerm;54877;51.504;3.894;2023-09-19T11:26:49;54.06;38.33;70.99;;
66399;Laerm;54877;51.504;3.894;2023-09-19T11:31:51;45.61;37.92;67.71;;
66399;Laerm;54877;51.504;3.894;2023-09-19T11:37:01;43.31;36.96;65.55;;
66399;Laerm;54877;51.504;3.894;2023-09-19T11:39:29;54.31;37.58;78.26;;
66399;Laerm;54877;51.504;3.894;2023-09-19T11:41:54;48.65;37.89;64.50;;
66399;Laerm;54877;51.504;3.894;2023-09-19T11:46:56;44.72;38.32;61.25;;
66399;Laerm;54877;51.504;3.894;2023-09-19T11:49:29;50.15;36.25;72.38;;
66399;Laerm;54877;51.504;3.894;2023-09-19T11:51:57;54.03;36.09;72.29;;
66399;Laerm;54877;51.504;3.894;2023-09-19T11:54:27;40.99;36.34;57.50;;
66399;Laerm;54877;51.504;3.894;2023-09-19T11:56:56;41.08;37.06;52.94;;
66399;Laerm;54877;51.504;3.894;2023-09-19T11:59:24;42.76;37.18;59.54;;
66399;Laerm;54877;51.504;3.894;2023-09-19T12:02:01;42.98;36.80;64.11;;
66399;Laerm;54877;51.504;3.894;2023-09-19T12:04:42;49.36;37.53;66.41;;
66399;Laerm;54877;51.504;3.894;2023-09-19T12:07:09;54.11;37.15;69.84;;
66399;Laerm;54877;51.504;3.894;2023-09-19T12:09:44;47.88;36.78;67.00;;
66399;Laerm;54877;51.504;3.894;2023-09-19T12:12:26;52.17;36.51;70.95;;
66399;Laerm;54877;51.504;3.894;2023-09-19T12:15:00;49.94;36.66;66.07;;
66399;Laerm;54877;51.504;3.894;2023-09-19T12:17:38;45.16;37.12;65.47;;
66399;Laerm;54877;51.504;3.894;2023-09-19T12:20:10;52.33;37.27;73.12;;
66399;Laerm;54877;51.504;3.894;2023-09-19T12:22:43;49.20;36.77;67.77;;
66399;Laerm;54877;51.504;3.894;2023-09-19T12:25:12;50.51;36.60;67.36;;
66399;Laerm;54877;51.504;3.894;2023-09-19T12:27:48;47.53;38.03;63.86;;
66399;Laerm;54877;51.504;3.894;2023-09-19T12:30:27;48.52;38.43;73.34;;
66399;Laerm;54877;51.504;3.894;2023-09-19T12:32:53;50.98;36.92;67.69;;
66399;Laerm;54877;51.504;3.894;2023-09-19T12:35:32;42.54;37.70;59.00;;
66399;Laerm;54877;51.504;3.894;2023-09-19T12:38:02;43.51;38.21;62.77;;
66399;Laerm;54877;51.504;3.894;2023-09-19T12:40:29;51.39;39.08;72.41;;
66399;Laerm;54877;51.504;3.894;2023-09-19T12:42:59;45.03;39.22;61.07;;
66399;Laerm;54877;51.504;3.894;2023-09-19T12:45:25;53.01;38.49;74.32;;
66399;Laerm;54877;51.504;3.894;2023-09-19T12:48:19;48.95;38.58;69.60;;
66399;Laerm;54877;51.504;3.894;2023-09-19T12:51:12;46.62;36.03;64.58;;
66399;Laerm;54877;51.504;3.894;2023-09-19T12:53:45;49.52;37.25;73.06;;
66399;Laerm;54877;51.504;3.894;2023-09-19T12:56:15;41.83;37.55;57.82;;
66399;Laerm;54877;51.504;3.894;2023-09-19T12:58:54;47.90;37.10;63.40;;
66399;Laerm;54877;51.504;3.894;2023-09-19T13:01:20;46.83;38.36;72.52;;
66399;Laerm;54877;51.504;3.894;2023-09-19T13:04:17;50.08;36.96;71.12;;
66399;Laerm;54877;51.504;3.894;2023-09-19T13:06:53;49.48;37.07;70.07;;
66399;Laerm;54877;51.504;3.894;2023-09-19T13:09:21;47.86;37.15;65.94;;
66399;Laerm;54877;51.504;3.894;2023-09-19T13:11:48;46.09;37.45;67.02;;
66399;Laerm;54877;51.504;3.894;2023-09-19T13:14:26;44.84;37.31;65.51;;
66399;Laerm;54877;51.504;3.894;2023-09-19T13:17:06;41.13;36.43;58.80;;
66399;Laerm;54877;51.504;3.894;2023-09-19T13:19:50;48.94;36.74;69.91;;
66399;Laerm;54877;51.504;3.894;2023-09-19T13:22:39;47.83;37.00;69.63;;
66399;Laerm;54877;51.504;3.894;2023-09-19T13:25:10;40.74;36.54;55.69;;
66399;Laerm;54877;51.504;3.894;2023-09-19T13:27:46;52.59;37.74;71.03;;
66399;Laerm;54877;51.504;3.894;2023-09-19T13:30:14;41.39;37.00;54.70;;
66399;Laerm;54877;51.504;3.894;2023-09-19T13:32:39;46.81;38.06;69.43;;
66399;Laerm;54877;51.504;3.894;2023-09-19T13:35:06;42.31;37.50;55.74;;
66399;Laerm;54877;51.504;3.894;2023-09-19T13:37:34;44.63;37.35;66.39;;
66399;Laerm;54877;51.504;3.894;2023-09-19T13:40:13;39.87;37.15;59.34;;
66399;Laerm;54877;51.504;3.894;2023-09-19T13:42:39;48.99;37.92;74.64;;
66399;Laerm;54877;51.504;3.894;2023-09-19T13:45:05;49.53;37.50;68.29;;
66399;Laerm;54877;51.504;3.894;2023-09-19T13:47:32;42.07;37.16;57.45;;
66399;Laerm;54877;51.504;3.894;2023-09-19T13:49:58;39.90;36.69;56.31;;
66399;Laerm;54877;51.504;3.894;2023-09-19T13:52:24;40.45;36.70;59.20;;
66399;Laerm;54877;51.504;3.894;2023-09-19T13:54:52;52.12;36.25;70.83;;
66399;Laerm;54877;51.504;3.894;2023-09-19T13:57:25;49.94;36.44;69.22;;
66399;Laerm;54877;51.504;3.894;2023-09-19T13:59:53;40.63;36.48;50.65;;
66399;Laerm;54877;51.504;3.894;2023-09-19T14:02:20;50.81;36.26;67.98;;
66399;Laerm;54877;51.504;3.894;2023-09-19T14:04:47;52.59;35.91;73.23;;
66399;Laerm;54877;51.504;3.894;2023-09-19T14:07:13;42.26;36.23;66.81;;
66399;Laerm;54877;51.504;3.894;2023-09-19T14:09:40;42.96;35.83;65.74;;
66399;Laerm;54877;51.504;3.894;2023-09-19T14:12:06;48.98;35.83;67.66;;
66399;Laerm;54877;51.504;3.894;2023-09-19T14:14:32;46.11;36.24;62.35;;
66399;Laerm;54877;51.504;3.894;2023-09-19T14:16:57;44.15;35.97;74.29;;
66399;Laerm;54877;51.504;3.894;2023-09-19T14:19:26;43.95;35.88;69.14;;
66399;Laerm;54877;51.504;3.894;2023-09-19T14:21:51;49.21;37.84;64.93;;
66399;Laerm;54877;51.504;3.894;2023-09-19T14:24:17;43.54;36.70;59.02;;
66399;Laerm;54877;51.504;3.894;2023-09-19T14:26:43;43.91;36.14;64.35;;